Terminal Aerodrome Forecast
Issued by NWS

Home | Current Version | Previous Version | Text Only | Print | Product List | Glossary On
Versions: 1 2 3 4 5 6 7 8 9 10 11 12 13 14 15 16 17 18 19 20 21 22 23 24 25 26 27 28
000
FTUS43 KILX 190520
TAFDEC
TAF
KDEC 190520Z 1906/2006 30013G23KT P6SM BKN025
     FM191000 31013KT P6SM SCT020
     FM191900 29011KT P6SM FEW250
     FM192300 26007KT P6SM FEW250=

USA.gov is the U.S. government's official web portal to all federal, state and local government web resources and services.